Aviation Digital Data Service (ADDS)

Output produced by METARs form (0059 UTC 28 July 2016)
found at http://aviationweather.gov/adds/metars/
 
KMHT 272320Z 2800/2824 VRB03KT P6SM SKC 
     FM281500 21007KT P6SM SCT050